sensor_id;sensor_type;location;lat;lon;timestamp;P1;durP1;ratioP1;P2;durP2;ratioP2
60026;SDS011;45891;53.006;6.512;2023-06-26T00:00:45;12.02;;;7.10;;
60026;SDS011;45891;53.006;6.512;2023-06-26T00:03:13;11.32;;;6.68;;
60026;SDS011;45891;53.006;6.512;2023-06-26T00:05:41;9.95;;;6.40;;
60026;SDS011;45891;53.006;6.512;2023-06-26T00:08:08;11.63;;;6.47;;
60026;SDS011;45891;53.006;6.512;2023-06-26T00:10:34;13.00;;;6.72;;
60026;SDS011;45891;53.006;6.512;2023-06-26T00:13:01;12.93;;;6.80;;
60026;SDS011;45891;53.006;6.512;2023-06-26T00:15:28;10.95;;;7.05;;
60026;SDS011;45891;53.006;6.512;2023-06-26T00:17:57;11.27;;;7.22;;
60026;SDS011;45891;53.006;6.512;2023-06-26T00:20:24;14.18;;;7.18;;
60026;SDS011;45891;53.006;6.512;2023-06-26T00:22:50;11.55;;;6.95;;
60026;SDS011;45891;53.006;6.512;2023-06-26T00:25:17;11.48;;;7.13;;
60026;SDS011;45891;53.006;6.512;2023-06-26T00:27:43;11.70;;;7.40;;
60026;SDS011;45891;53.006;6.512;2023-06-26T00:30:09;12.18;;;7.25;;
60026;SDS011;45891;53.006;6.512;2023-06-26T00:32:37;11.57;;;7.40;;
60026;SDS011;45891;53.006;6.512;2023-06-26T00:35:03;11.35;;;7.10;;
60026;SDS011;45891;53.006;6.512;2023-06-26T00:37:29;12.77;;;7.50;;
60026;SDS011;45891;53.006;6.512;2023-06-26T00:39:56;13.00;;;7.63;;
60026;SDS011;45891;53.006;6.512;2023-06-26T00:42:22;12.45;;;7.30;;
60026;SDS011;45891;53.006;6.512;2023-06-26T00:44:48;11.30;;;7.65;;
60026;SDS011;45891;53.006;6.512;2023-06-26T00:47:15;12.35;;;7.30;;
60026;SDS011;45891;53.006;6.512;2023-06-26T00:49:43;13.85;;;8.02;;
60026;SDS011;45891;53.006;6.512;2023-06-26T00:52:09;12.32;;;7.80;;
60026;SDS011;45891;53.006;6.512;2023-06-26T00:54:35;12.70;;;7.40;;
60026;SDS011;45891;53.006;6.512;2023-06-26T00:57:01;12.40;;;7.70;;
60026;SDS011;45891;53.006;6.512;2023-06-26T00:59:28;11.35;;;7.57;;
60026;SDS011;45891;53.006;6.512;2023-06-26T01:01:54;11.77;;;7.80;;
60026;SDS011;45891;53.006;6.512;2023-06-26T01:04:20;12.13;;;8.05;;
60026;SDS011;45891;53.006;6.512;2023-06-26T01:06:47;11.32;;;7.63;;
60026;SDS011;45891;53.006;6.512;2023-06-26T01:09:16;12.77;;;7.80;;
60026;SDS011;45891;53.006;6.512;2023-06-26T01:11:44;12.00;;;8.00;;
60026;SDS011;45891;53.006;6.512;2023-06-26T01:14:10;12.35;;;8.00;;
60026;SDS011;45891;53.006;6.512;2023-06-26T01:16:36;12.80;;;8.18;;
60026;SDS011;45891;53.006;6.512;2023-06-26T01:19:05;12.68;;;7.88;;
60026;SDS011;45891;53.006;6.512;2023-06-26T01:21:37;11.82;;;8.07;;
60026;SDS011;45891;53.006;6.512;2023-06-26T01:24:17;12.10;;;8.13;;
60026;SDS011;45891;53.006;6.512;2023-06-26T01:26:52;11.18;;;7.57;;
60026;SDS011;45891;53.006;6.512;2023-06-26T01:29:19;13.07;;;8.43;;
60026;SDS011;45891;53.006;6.512;2023-06-26T01:31:48;15.18;;;8.25;;
60026;SDS011;45891;53.006;6.512;2023-06-26T01:34:15;12.15;;;8.55;;
60026;SDS011;45891;53.006;6.512;2023-06-26T01:36:46;13.43;;;8.57;;
60026;SDS011;45891;53.006;6.512;2023-06-26T01:39:15;12.60;;;8.48;;
60026;SDS011;45891;53.006;6.512;2023-06-26T01:41:44;12.85;;;8.90;;
60026;SDS011;45891;53.006;6.512;2023-06-26T01:49:26;14.05;;;9.82;;
60026;SDS011;45891;53.006;6.512;2023-06-26T01:51:55;15.25;;;9.90;;
60026;SDS011;45891;53.006;6.512;2023-06-26T01:54:29;13.93;;;9.85;;
60026;SDS011;45891;53.006;6.512;2023-06-26T01:56:58;15.25;;;9.55;;
60026;SDS011;45891;53.006;6.512;2023-06-26T01:59:25;15.77;;;9.68;;
60026;SDS011;45891;53.006;6.512;2023-06-26T02:01:57;13.82;;;9.45;;
60026;SDS011;45891;53.006;6.512;2023-06-26T02:04:23;13.52;;;9.10;;
60026;SDS011;45891;53.006;6.512;2023-06-26T02:06:49;12.82;;;9.15;;
60026;SDS011;45891;53.006;6.512;2023-06-26T02:09:15;15.55;;;9.57;;
60026;SDS011;45891;53.006;6.512;2023-06-26T02:11:41;16.20;;;9.30;;
60026;SDS011;45891;53.006;6.512;2023-06-26T02:14:07;13.38;;;9.27;;
60026;SDS011;45891;53.006;6.512;2023-06-26T02:16:34;14.85;;;10.00;;
60026;SDS011;45891;53.006;6.512;2023-06-26T02:19:00;13.15;;;9.70;;
60026;SDS011;45891;53.006;6.512;2023-06-26T02:21:26;13.50;;;9.32;;
60026;SDS011;45891;53.006;6.512;2023-06-26T02:23:52;13.32;;;8.98;;
60026;SDS011;45891;53.006;6.512;2023-06-26T02:26:19;14.85;;;8.77;;
60026;SDS011;45891;53.006;6.512;2023-06-26T02:28:46;13.10;;;9.47;;
60026;SDS011;45891;53.006;6.512;2023-06-26T02:31:12;14.02;;;9.57;;
60026;SDS011;45891;53.006;6.512;2023-06-26T02:33:38;12.93;;;10.00;;
60026;SDS011;45891;53.006;6.512;2023-06-26T02:36:04;15.02;;;9.73;;
60026;SDS011;45891;53.006;6.512;2023-06-26T02:38:31;15.50;;;10.23;;
60026;SDS011;45891;53.006;6.512;2023-06-26T02:40:57;13.27;;;9.90;;
60026;SDS011;45891;53.006;6.512;2023-06-26T02:43:23;14.23;;;9.48;;
60026;SDS011;45891;53.006;6.512;2023-06-26T02:45:49;13.77;;;10.43;;
60026;SDS011;45891;53.006;6.512;2023-06-26T02:48:15;14.45;;;10.32;;
60026;SDS011;45891;53.006;6.512;2023-06-26T02:50:41;14.57;;;9.82;;
60026;SDS011;45891;53.006;6.512;2023-06-26T02:53:11;13.93;;;10.35;;
60026;SDS011;45891;53.006;6.512;2023-06-26T02:55:37;14.25;;;9.85;;
60026;SDS011;45891;53.006;6.512;2023-06-26T02:58:03;12.00;;;9.30;;
60026;SDS011;45891;53.006;6.512;2023-06-26T03:00:30;14.07;;;10.27;;
60026;SDS011;45891;53.006;6.512;2023-06-26T03:02:56;14.13;;;10.00;;
60026;SDS011;45891;53.006;6.512;2023-06-26T03:05:22;15.45;;;9.65;;
60026;SDS011;45891;53.006;6.512;2023-06-26T03:07:49;15.25;;;10.63;;
60026;SDS011;45891;53.006;6.512;2023-06-26T03:10:15;12.90;;;10.05;;
60026;SDS011;45891;53.006;6.512;2023-06-26T03:12:41;15.77;;;10.80;;
60026;SDS011;45891;53.006;6.512;2023-06-26T03:15:07;14.80;;;11.05;;
60026;SDS011;45891;53.006;6.512;2023-06-26T03:17:34;14.77;;;10.90;;
60026;SDS011;45891;53.006;6.512;2023-06-26T03:20:00;14.88;;;11.15;;
60026;SDS011;45891;53.006;6.512;2023-06-26T03:22:26;14.73;;;11.13;;
60026;SDS011;45891;53.006;6.512;2023-06-26T03:24:52;16.30;;;10.88;;
60026;SDS011;45891;53.006;6.512;2023-06-26T03:27:18;15.38;;;11.88;;
60026;SDS011;45891;53.006;6.512;2023-06-26T03:29:44;16.85;;;11.38;;
60026;SDS011;45891;53.006;6.512;2023-06-26T03:32:10;15.60;;;11.25;;
60026;SDS011;45891;53.006;6.512;2023-06-26T03:34:36;18.38;;;11.65;;
60026;SDS011;45891;53.006;6.512;2023-06-26T03:37:02;15.05;;;11.40;;
60026;SDS011;45891;53.006;6.512;2023-06-26T03:39:29;16.13;;;11.02;;
60026;SDS011;45891;53.006;6.512;2023-06-26T03:41:55;16.13;;;11.20;;
60026;SDS011;45891;53.006;6.512;2023-06-26T03:44:26;13.70;;;10.52;;
60026;SDS011;45891;53.006;6.512;2023-06-26T03:46:53;13.32;;;10.07;;
60026;SDS011;45891;53.006;6.512;2023-06-26T03:49:19;13.85;;;9.68;;
60026;SDS011;45891;53.006;6.512;2023-06-26T03:51:45;15.00;;;10.35;;
60026;SDS011;45891;53.006;6.512;2023-06-26T03:54:11;13.00;;;9.10;;
60026;SDS011;45891;53.006;6.512;2023-06-26T03:56:37;12.82;;;8.88;;
60026;SDS011;45891;53.006;6.512;2023-06-26T03:59:03;15.48;;;9.10;;
60026;SDS011;45891;53.006;6.512;2023-06-26T04:01:30;13.68;;;9.10;;
60026;SDS011;45891;53.006;6.512;2023-06-26T04:03:56;14.32;;;9.20;;
60026;SDS011;45891;53.006;6.512;2023-06-26T04:06:22;14.43;;;9.73;;
60026;SDS011;45891;53.006;6.512;2023-06-26T04:08:48;15.45;;;9.10;;
60026;SDS011;45891;53.006;6.512;2023-06-26T04:11:14;15.05;;;9.18;;
60026;SDS011;45891;53.006;6.512;2023-06-26T04:13:40;16.05;;;8.85;;
60026;SDS011;45891;53.006;6.512;2023-06-26T04:16:06;13.55;;;8.63;;
60026;SDS011;45891;53.006;6.512;2023-06-26T04:18:32;13.95;;;8.65;;
60026;SDS011;45891;53.006;6.512;2023-06-26T04:21:06;15.80;;;9.40;;
60026;SDS011;45891;53.006;6.512;2023-06-26T04:23:32;12.98;;;8.52;;
60026;SDS011;45891;53.006;6.512;2023-06-26T04:25:59;13.20;;;8.85;;
60026;SDS011;45891;53.006;6.512;2023-06-26T04:28:27;14.38;;;8.90;;
60026;SDS011;45891;53.006;6.512;2023-06-26T04:30:53;14.80;;;8.55;;
60026;SDS011;45891;53.006;6.512;2023-06-26T04:33:20;12.80;;;8.27;;
60026;SDS011;45891;53.006;6.512;2023-06-26T04:35:46;14.35;;;8.05;;
60026;SDS011;45891;53.006;6.512;2023-06-26T04:38:15;14.85;;;8.07;;
60026;SDS011;45891;53.006;6.512;2023-06-26T04:40:41;13.02;;;8.05;;
60026;SDS011;45891;53.006;6.512;2023-06-26T04:43:07;12.02;;;8.05;;
60026;SDS011;45891;53.006;6.512;2023-06-26T04:45:33;13.10;;;7.97;;
60026;SDS011;45891;53.006;6.512;2023-06-26T04:47:59;13.75;;;7.95;;
60026;SDS011;45891;53.006;6.512;2023-06-26T04:50:25;12.73;;;7.80;;
60026;SDS011;45891;53.006;6.512;2023-06-26T04:52:54;15.02;;;7.88;;
60026;SDS011;45891;53.006;6.512;2023-06-26T04:55:21;16.13;;;8.50;;
60026;SDS011;45891;53.006;6.512;2023-06-26T04:57:49;13.77;;;7.55;;
60026;SDS011;45891;53.006;6.512;2023-06-26T05:00:16;15.65;;;7.70;;
60026;SDS011;45891;53.006;6.512;2023-06-26T05:02:42;15.52;;;8.40;;
60026;SDS011;45891;53.006;6.512;2023-06-26T05:05:08;13.75;;;7.63;;
60026;SDS011;45891;53.006;6.512;2023-06-26T05:07:36;17.50;;;8.00;;
60026;SDS011;45891;53.006;6.512;2023-06-26T05:10:03;18.27;;;8.60;;
60026;SDS011;45891;53.006;6.512;2023-06-26T05:12:29;17.02;;;7.97;;
60026;SDS011;45891;53.006;6.512;2023-06-26T05:14:55;17.48;;;8.10;;
60026;SDS011;45891;53.006;6.512;2023-06-26T05:17:21;20.13;;;8.88;;
60026;SDS011;45891;53.006;6.512;2023-06-26T05:19:47;19.75;;;8.27;;
60026;SDS011;45891;53.006;6.512;2023-06-26T05:22:14;23.38;;;8.55;;
60026;SDS011;45891;53.006;6.512;2023-06-26T05:24:42;16.00;;;7.82;;
60026;SDS011;45891;53.006;6.512;2023-06-26T05:27:11;17.88;;;8.48;;
60026;SDS011;45891;53.006;6.512;2023-06-26T05:29:46;19.65;;;8.40;;
60026;SDS011;45891;53.006;6.512;2023-06-26T05:32:12;17.98;;;8.45;;
60026;SDS011;45891;53.006;6.512;2023-06-26T05:34:46;15.80;;;7.65;;
60026;SDS011;45891;53.006;6.512;2023-06-26T05:37:16;20.42;;;7.75;;
60026;SDS011;45891;53.006;6.512;2023-06-26T05:39:46;17.45;;;7.47;;
60026;SDS011;45891;53.006;6.512;2023-06-26T05:42:12;19.67;;;7.70;;
60026;SDS011;45891;53.006;6.512;2023-06-26T05:44:39;19.05;;;7.13;;
60026;SDS011;45891;53.006;6.512;2023-06-26T05:47:05;20.58;;;7.30;;
60026;SDS011;45891;53.006;6.512;2023-06-26T05:49:33;17.17;;;6.50;;
60026;SDS011;45891;53.006;6.512;2023-06-26T05:51:59;16.02;;;6.03;;
60026;SDS011;45891;53.006;6.512;2023-06-26T05:54:25;15.02;;;5.47;;
60026;SDS011;45891;53.006;6.512;2023-06-26T05:56:56;14.63;;;5.78;;
60026;SDS011;45891;53.006;6.512;2023-06-26T05:59:24;16.77;;;6.13;;
60026;SDS011;45891;53.006;6.512;2023-06-26T06:01:52;18.08;;;6.10;;
60026;SDS011;45891;53.006;6.512;2023-06-26T06:04:18;15.10;;;5.13;;
60026;SDS011;45891;53.006;6.512;2023-06-26T06:06:44;15.50;;;5.07;;
60026;SDS011;45891;53.006;6.512;2023-06-26T06:09:11;15.60;;;5.22;;
60026;SDS011;45891;53.006;6.512;2023-06-26T06:11:37;14.77;;;4.85;;
60026;SDS011;45891;53.006;6.512;2023-06-26T06:14:03;16.42;;;4.97;;
60026;SDS011;45891;53.006;6.512;2023-06-26T06:16:29;14.68;;;4.70;;
60026;SDS011;45891;53.006;6.512;2023-06-26T06:18:58;16.13;;;4.80;;
60026;SDS011;45891;53.006;6.512;2023-06-26T06:21:24;17.65;;;4.70;;
60026;SDS011;45891;53.006;6.512;2023-06-26T06:23:52;14.10;;;4.28;;
60026;SDS011;45891;53.006;6.512;2023-06-26T06:26:18;17.95;;;4.20;;
60026;SDS011;45891;53.006;6.512;2023-06-26T06:28:44;16.87;;;4.53;;
60026;SDS011;45891;53.006;6.512;2023-06-26T06:31:11;16.83;;;4.50;;
60026;SDS011;45891;53.006;6.512;2023-06-26T06:33:37;15.10;;;3.92;;
60026;SDS011;45891;53.006;6.512;2023-06-26T06:36:04;14.55;;;4.13;;
60026;SDS011;45891;53.006;6.512;2023-06-26T06:38:30;13.77;;;3.60;;
60026;SDS011;45891;53.006;6.512;2023-06-26T06:40:57;13.98;;;3.70;;
60026;SDS011;45891;53.006;6.512;2023-06-26T06:43:23;12.57;;;3.63;;
60026;SDS011;45891;53.006;6.512;2023-06-26T06:45:49;15.10;;;3.42;;
60026;SDS011;45891;53.006;6.512;2023-06-26T06:48:15;12.00;;;3.25;;
60026;SDS011;45891;53.006;6.512;2023-06-26T06:50:41;12.45;;;3.20;;
60026;SDS011;45891;53.006;6.512;2023-06-26T06:53:07;15.70;;;3.42;;
60026;SDS011;45891;53.006;6.512;2023-06-26T06:55:33;14.90;;;3.28;;
60026;SDS011;45891;53.006;6.512;2023-06-26T06:57:59;13.07;;;3.20;;
60026;SDS011;45891;53.006;6.512;2023-06-26T07:00:26;11.35;;;2.97;;
60026;SDS011;45891;53.006;6.512;2023-06-26T07:02:52;11.10;;;2.80;;
60026;SDS011;45891;53.006;6.512;2023-06-26T07:05:19;10.75;;;2.88;;
60026;SDS011;45891;53.006;6.512;2023-06-26T07:07:45;13.35;;;2.88;;
60026;SDS011;45891;53.006;6.512;2023-06-26T07:10:13;13.70;;;2.85;;
60026;SDS011;45891;53.006;6.512;2023-06-26T07:12:40;11.85;;;2.50;;
60026;SDS011;45891;53.006;6.512;2023-06-26T07:15:06;9.60;;;2.28;;
60026;SDS011;45891;53.006;6.512;2023-06-26T07:17:33;11.88;;;2.80;;
60026;SDS011;45891;53.006;6.512;2023-06-26T07:20:00;14.07;;;2.50;;
60026;SDS011;45891;53.006;6.512;2023-06-26T07:22:32;10.80;;;2.40;;
60026;SDS011;45891;53.006;6.512;2023-06-26T07:25:06;12.25;;;2.40;;
60026;SDS011;45891;53.006;6.512;2023-06-26T07:27:36;10.15;;;2.35;;
60026;SDS011;45891;53.006;6.512;2023-06-26T07:30:03;10.45;;;2.33;;
60026;SDS011;45891;53.006;6.512;2023-06-26T07:32:29;11.32;;;2.25;;
60026;SDS011;45891;53.006;6.512;2023-06-26T07:34:55;10.05;;;2.60;;
60026;SDS011;45891;53.006;6.512;2023-06-26T07:37:22;9.75;;;1.95;;
60026;SDS011;45891;53.006;6.512;2023-06-26T07:39:51;10.35;;;2.10;;
60026;SDS011;45891;53.006;6.512;2023-06-26T07:42:17;9.50;;;1.90;;
60026;SDS011;45891;53.006;6.512;2023-06-26T07:44:43;9.82;;;2.20;;
60026;SDS011;45891;53.006;6.512;2023-06-26T07:47:09;12.43;;;2.28;;
60026;SDS011;45891;53.006;6.512;2023-06-26T07:49:36;8.50;;;2.05;;
60026;SDS011;45891;53.006;6.512;2023-06-26T07:52:03;11.65;;;2.47;;
60026;SDS011;45891;53.006;6.512;2023-06-26T07:54:29;12.02;;;2.55;;
60026;SDS011;45891;53.006;6.512;2023-06-26T07:56:56;13.18;;;2.38;;
60026;SDS011;45891;53.006;6.512;2023-06-26T07:59:24;10.93;;;2.15;;
60026;SDS011;45891;53.006;6.512;2023-06-26T08:01:52;8.18;;;2.00;;
60026;SDS011;45891;53.006;6.512;2023-06-26T08:04:19;10.82;;;1.90;;
60026;SDS011;45891;53.006;6.512;2023-06-26T08:06:50;9.85;;;2.55;;
60026;SDS011;45891;53.006;6.512;2023-06-26T08:09:18;7.93;;;1.70;;
60026;SDS011;45891;53.006;6.512;2023-06-26T08:11:45;9.85;;;1.77;;
60026;SDS011;45891;53.006;6.512;2023-06-26T08:14:12;10.75;;;2.13;;
60026;SDS011;45891;53.006;6.512;2023-06-26T08:16:38;7.53;;;1.65;;
60026;SDS011;45891;53.006;6.512;2023-06-26T08:19:05;7.80;;;1.70;;
60026;SDS011;45891;53.006;6.512;2023-06-26T08:21:31;9.23;;;1.80;;
60026;SDS011;45891;53.006;6.512;2023-06-26T08:23:57;7.47;;;1.65;;
60026;SDS011;45891;53.006;6.512;2023-06-26T08:26:24;8.38;;;1.80;;
60026;SDS011;45891;53.006;6.512;2023-06-26T08:28:50;7.57;;;1.70;;
60026;SDS011;45891;53.006;6.512;2023-06-26T08:31:16;7.50;;;1.60;;
60026;SDS011;45891;53.006;6.512;2023-06-26T08:33:42;7.03;;;1.80;;
60026;SDS011;45891;53.006;6.512;2023-06-26T08:36:09;6.72;;;1.80;;
60026;SDS011;45891;53.006;6.512;2023-06-26T08:38:35;9.93;;;2.17;;
60026;SDS011;45891;53.006;6.512;2023-06-26T08:41:01;10.50;;;2.08;;
60026;SDS011;45891;53.006;6.512;2023-06-26T08:43:30;8.40;;;1.80;;
60026;SDS011;45891;53.006;6.512;2023-06-26T08:45:58;9.05;;;2.08;;
60026;SDS011;45891;53.006;6.512;2023-06-26T08:48:24;9.85;;;1.90;;
60026;SDS011;45891;53.006;6.512;2023-06-26T08:50:52;10.20;;;2.03;;
60026;SDS011;45891;53.006;6.512;2023-06-26T08:56:07;7.30;;;1.92;;
60026;SDS011;45891;53.006;6.512;2023-06-26T08:58:35;7.50;;;1.80;;
60026;SDS011;45891;53.006;6.512;2023-06-26T09:01:04;10.75;;;2.45;;
60026;SDS011;45891;53.006;6.512;2023-06-26T09:03:31;9.82;;;2.53;;
60026;SDS011;45891;53.006;6.512;2023-06-26T09:05:58;8.40;;;2.00;;
60026;SDS011;45891;53.006;6.512;2023-06-26T09:08:25;9.23;;;2.22;;
60026;SDS011;45891;53.006;6.512;2023-06-26T09:10:51;9.25;;;2.03;;
60026;SDS011;45891;53.006;6.512;2023-06-26T09:13:18;8.63;;;2.00;;
60026;SDS011;45891;53.006;6.512;2023-06-26T09:15:45;7.93;;;2.05;;
60026;SDS011;45891;53.006;6.512;2023-06-26T09:18:11;9.32;;;2.17;;
60026;SDS011;45891;53.006;6.512;2023-06-26T09:20:38;9.38;;;2.05;;
60026;SDS011;45891;53.006;6.512;2023-06-26T09:23:04;7.75;;;1.92;;
60026;SDS011;45891;53.006;6.512;2023-06-26T09:25:31;8.43;;;2.30;;
60026;SDS011;45891;53.006;6.512;2023-06-26T09:27:57;11.18;;;1.98;;
60026;SDS011;45891;53.006;6.512;2023-06-26T09:30:24;8.73;;;2.10;;
60026;SDS011;45891;53.006;6.512;2023-06-26T09:32:50;12.85;;;2.30;;
60026;SDS011;45891;53.006;6.512;2023-06-26T09:35:19;9.98;;;2.17;;
60026;SDS011;45891;53.006;6.512;2023-06-26T09:37:46;10.38;;;2.25;;
60026;SDS011;45891;53.006;6.512;2023-06-26T09:40:13;9.75;;;2.33;;
60026;SDS011;45891;53.006;6.512;2023-06-26T09:42:39;8.23;;;2.00;;
60026;SDS011;45891;53.006;6.512;2023-06-26T09:45:06;13.13;;;2.25;;
60026;SDS011;45891;53.006;6.512;2023-06-26T09:47:33;13.00;;;2.53;;
60026;SDS011;45891;53.006;6.512;2023-06-26T09:50:02;11.60;;;2.45;;
60026;SDS011;45891;53.006;6.512;2023-06-26T09:52:29;8.68;;;2.30;;
60026;SDS011;45891;53.006;6.512;2023-06-26T09:55:10;9.90;;;2.72;;
60026;SDS011;45891;53.006;6.512;2023-06-26T09:57:37;7.85;;;2.30;;
60026;SDS011;45891;53.006;6.512;2023-06-26T10:00:05;8.27;;;2.25;;
60026;SDS011;45891;53.006;6.512;2023-06-26T10:02:33;11.25;;;2.40;;
60026;SDS011;45891;53.006;6.512;2023-06-26T10:04:59;9.10;;;2.47;;
60026;SDS011;45891;53.006;6.512;2023-06-26T10:07:25;11.75;;;2.50;;
60026;SDS011;45891;53.006;6.512;2023-06-26T10:09:52;9.02;;;2.45;;
60026;SDS011;45891;53.006;6.512;2023-06-26T10:12:26;10.45;;;2.40;;
60026;SDS011;45891;53.006;6.512;2023-06-26T10:14:55;8.63;;;2.28;;
60026;SDS011;45891;53.006;6.512;2023-06-26T10:17:24;11.48;;;2.40;;
60026;SDS011;45891;53.006;6.512;2023-06-26T10:19:54;8.55;;;2.28;;
60026;SDS011;45891;53.006;6.512;2023-06-26T10:22:23;11.40;;;2.75;;
60026;SDS011;45891;53.006;6.512;2023-06-26T10:24:53;10.30;;;2.47;;
60026;SDS011;45891;53.006;6.512;2023-06-26T10:27:24;8.32;;;2.28;;
60026;SDS011;45891;53.006;6.512;2023-06-26T10:29:54;10.40;;;2.60;;
60026;SDS011;45891;53.006;6.512;2023-06-26T10:32:22;8.98;;;2.13;;
60026;SDS011;45891;53.006;6.512;2023-06-26T10:34:50;10.23;;;2.22;;
60026;SDS011;45891;53.006;6.512;2023-06-26T10:37:17;8.82;;;2.00;;
60026;SDS011;45891;53.006;6.512;2023-06-26T10:39:50;7.43;;;1.90;;
60026;SDS011;45891;53.006;6.512;2023-06-26T10:42:20;8.35;;;2.00;;
60026;SDS011;45891;53.006;6.512;2023-06-26T10:45:14;8.75;;;2.20;;
60026;SDS011;45891;53.006;6.512;2023-06-26T10:47:42;9.35;;;2.00;;
60026;SDS011;45891;53.006;6.512;2023-06-26T10:52:44;9.63;;;1.95;;
60026;SDS011;45891;53.006;6.512;2023-06-26T10:55:10;9.50;;;1.90;;
60026;SDS011;45891;53.006;6.512;2023-06-26T10:57:39;9.10;;;2.10;;
60026;SDS011;45891;53.006;6.512;2023-06-26T11:00:11;9.00;;;2.03;;
60026;SDS011;45891;53.006;6.512;2023-06-26T11:02:50;8.63;;;2.20;;
60026;SDS011;45891;53.006;6.512;2023-06-26T11:05:29;8.77;;;2.10;;
60026;SDS011;45891;53.006;6.512;2023-06-26T11:10:48;10.27;;;2.42;;
60026;SDS011;45891;53.006;6.512;2023-06-26T11:13:16;10.90;;;2.05;;
60026;SDS011;45891;53.006;6.512;2023-06-26T11:15:44;12.85;;;2.30;;
60026;SDS011;45891;53.006;6.512;2023-06-26T11:18:10;9.93;;;2.03;;
60026;SDS011;45891;53.006;6.512;2023-06-26T11:20:37;7.90;;;1.65;;
60026;SDS011;45891;53.006;6.512;2023-06-26T11:23:03;8.55;;;1.95;;
60026;SDS011;45891;53.006;6.512;2023-06-26T11:25:35;8.98;;;2.05;;
60026;SDS011;45891;53.006;6.512;2023-06-26T11:28:02;10.07;;;2.00;;
60026;SDS011;45891;53.006;6.512;2023-06-26T11:30:30;9.50;;;2.17;;
60026;SDS011;45891;53.006;6.512;2023-06-26T11:33:09;9.05;;;1.73;;
60026;SDS011;45891;53.006;6.512;2023-06-26T11:35:36;7.97;;;2.05;;
60026;SDS011;45891;53.006;6.512;2023-06-26T11:38:03;10.40;;;1.88;;
60026;SDS011;45891;53.006;6.512;2023-06-26T11:40:32;7.75;;;1.90;;
60026;SDS011;45891;53.006;6.512;2023-06-26T11:43:02;9.82;;;1.90;;
60026;SDS011;45891;53.006;6.512;2023-06-26T11:45:29;10.43;;;2.20;;
60026;SDS011;45891;53.006;6.512;2023-06-26T11:47:57;7.80;;;1.73;;
60026;SDS011;45891;53.006;6.512;2023-06-26T11:50:24;8.80;;;1.63;;
60026;SDS011;45891;53.006;6.512;2023-06-26T11:52:54;13.85;;;1.98;;
60026;SDS011;45891;53.006;6.512;2023-06-26T11:57:54;6.47;;;1.55;;
60026;SDS011;45891;53.006;6.512;2023-06-26T12:00:22;10.35;;;1.65;;
60026;SDS011;45891;53.006;6.512;2023-06-26T12:02:48;8.65;;;1.45;;
60026;SDS011;45891;53.006;6.512;2023-06-26T12:05:15;8.18;;;1.70;;
60026;SDS011;45891;53.006;6.512;2023-06-26T12:07:42;9.77;;;1.90;;
60026;SDS011;45891;53.006;6.512;2023-06-26T12:10:11;8.25;;;1.48;;
60026;SDS011;45891;53.006;6.512;2023-06-26T12:12:37;9.15;;;1.27;;
60026;SDS011;45891;53.006;6.512;2023-06-26T12:15:06;9.15;;;1.48;;
60026;SDS011;45891;53.006;6.512;2023-06-26T12:17:33;6.35;;;1.38;;
60026;SDS011;45891;53.006;6.512;2023-06-26T12:20:02;6.75;;;1.30;;
60026;SDS011;45891;53.006;6.512;2023-06-26T12:22:34;8.60;;;1.60;;
60026;SDS011;45891;53.006;6.512;2023-06-26T12:25:01;7.72;;;1.33;;
60026;SDS011;45891;53.006;6.512;2023-06-26T12:27:27;8.60;;;1.63;;
60026;SDS011;45891;53.006;6.512;2023-06-26T12:29:54;6.38;;;1.52;;
60026;SDS011;45891;53.006;6.512;2023-06-26T12:32:24;7.78;;;1.48;;
60026;SDS011;45891;53.006;6.512;2023-06-26T12:34:53;8.57;;;1.67;;
60026;SDS011;45891;53.006;6.512;2023-06-26T12:37:22;7.60;;;1.50;;
60026;SDS011;45891;53.006;6.512;2023-06-26T12:39:57;7.93;;;1.70;;
60026;SDS011;45891;53.006;6.512;2023-06-26T12:42:24;9.60;;;1.60;;
60026;SDS011;45891;53.006;6.512;2023-06-26T12:44:52;9.18;;;1.67;;
60026;SDS011;45891;53.006;6.512;2023-06-26T12:47:23;7.25;;;1.45;;
60026;SDS011;45891;53.006;6.512;2023-06-26T12:49:53;8.90;;;1.42;;
60026;SDS011;45891;53.006;6.512;2023-06-26T12:52:20;10.27;;;1.85;;
60026;SDS011;45891;53.006;6.512;2023-06-26T12:54:49;9.70;;;1.90;;
60026;SDS011;45891;53.006;6.512;2023-06-26T12:59:43;10.63;;;1.70;;
60026;SDS011;45891;53.006;6.512;2023-06-26T13:02:09;10.90;;;1.73;;
60026;SDS011;45891;53.006;6.512;2023-06-26T13:04:39;10.40;;;1.90;;
60026;SDS011;45891;53.006;6.512;2023-06-26T13:07:07;9.63;;;1.77;;
60026;SDS011;45891;53.006;6.512;2023-06-26T13:09:34;10.20;;;1.70;;
60026;SDS011;45891;53.006;6.512;2023-06-26T13:12:02;9.50;;;2.88;;
60026;SDS011;45891;53.006;6.512;2023-06-26T13:14:29;10.32;;;2.10;;
60026;SDS011;45891;53.006;6.512;2023-06-26T13:16:56;10.93;;;2.58;;
60026;SDS011;45891;53.006;6.512;2023-06-26T13:19:22;9.82;;;2.00;;
60026;SDS011;45891;53.006;6.512;2023-06-26T13:21:48;9.48;;;1.80;;
60026;SDS011;45891;53.006;6.512;2023-06-26T13:24:14;7.95;;;1.48;;
60026;SDS011;45891;53.006;6.512;2023-06-26T13:26:41;7.93;;;1.58;;
60026;SDS011;45891;53.006;6.512;2023-06-26T13:29:07;9.45;;;1.77;;
60026;SDS011;45891;53.006;6.512;2023-06-26T13:31:33;10.55;;;4.22;;
60026;SDS011;45891;53.006;6.512;2023-06-26T13:33:59;11.52;;;3.53;;
60026;SDS011;45891;53.006;6.512;2023-06-26T13:36:29;12.73;;;2.10;;
60026;SDS011;45891;53.006;6.512;2023-06-26T13:38:55;11.88;;;4.53;;
60026;SDS011;45891;53.006;6.512;2023-06-26T13:41:22;9.80;;;2.38;;
60026;SDS011;45891;53.006;6.512;2023-06-26T13:43:49;12.10;;;3.57;;
60026;SDS011;45891;53.006;6.512;2023-06-26T13:46:15;13.20;;;3.70;;
60026;SDS011;45891;53.006;6.512;2023-06-26T13:48:43;9.93;;;2.85;;
60026;SDS011;45891;53.006;6.512;2023-06-26T13:51:10;16.20;;;2.45;;
60026;SDS011;45891;53.006;6.512;2023-06-26T13:53:36;11.57;;;3.35;;
60026;SDS011;45891;53.006;6.512;2023-06-26T13:56:02;12.02;;;3.25;;
60026;SDS011;45891;53.006;6.512;2023-06-26T13:58:28;16.83;;;6.82;;
60026;SDS011;45891;53.006;6.512;2023-06-26T14:00:58;15.30;;;4.40;;
60026;SDS011;45891;53.006;6.512;2023-06-26T14:03:25;12.32;;;3.40;;
60026;SDS011;45891;53.006;6.512;2023-06-26T14:05:53;12.35;;;3.80;;
60026;SDS011;45891;53.006;6.512;2023-06-26T14:08:19;13.52;;;4.80;;
60026;SDS011;45891;53.006;6.512;2023-06-26T14:10:45;13.88;;;5.80;;
60026;SDS011;45891;53.006;6.512;2023-06-26T14:13:11;11.85;;;3.78;;
60026;SDS011;45891;53.006;6.512;2023-06-26T14:15:40;8.60;;;2.35;;
60026;SDS011;45891;53.006;6.512;2023-06-26T14:18:07;10.30;;;2.20;;
60026;SDS011;45891;53.006;6.512;2023-06-26T14:20:33;7.35;;;1.40;;
60026;SDS011;45891;53.006;6.512;2023-06-26T14:23:01;10.88;;;2.13;;
60026;SDS011;45891;53.006;6.512;2023-06-26T14:25:27;9.57;;;1.90;;
60026;SDS011;45891;53.006;6.512;2023-06-26T14:27:57;11.02;;;1.90;;
60026;SDS011;45891;53.006;6.512;2023-06-26T14:30:24;9.38;;;1.58;;
60026;SDS011;45891;53.006;6.512;2023-06-26T14:32:50;8.77;;;1.63;;
60026;SDS011;45891;53.006;6.512;2023-06-26T14:35:16;10.30;;;1.90;;
60026;SDS011;45891;53.006;6.512;2023-06-26T14:37:43;8.75;;;1.80;;
60026;SDS011;45891;53.006;6.512;2023-06-26T14:40:09;11.73;;;2.20;;
60026;SDS011;45891;53.006;6.512;2023-06-26T14:42:36;9.48;;;1.73;;
60026;SDS011;45891;53.006;6.512;2023-06-26T14:45:02;8.25;;;1.60;;
60026;SDS011;45891;53.006;6.512;2023-06-26T14:47:29;10.70;;;1.77;;
60026;SDS011;45891;53.006;6.512;2023-06-26T14:49:55;10.82;;;1.55;;
60026;SDS011;45891;53.006;6.512;2023-06-26T14:52:21;10.50;;;1.50;;
60026;SDS011;45891;53.006;6.512;2023-06-26T14:54:47;8.52;;;1.50;;
60026;SDS011;45891;53.006;6.512;2023-06-26T14:57:13;9.80;;;1.58;;